Time;durP1;ratioP1;P1;durP2;ratioP2;P2;SDS_P1;SDS_P2;PMS_P1;PMS_P2;Temp;Humidity;BMP_temperature;BMP_pressure;BME280_temperature;BME280_humidity;BME280_pressure;Samples;Min_cycle;Max_cycle;Signal;HPM_P1;HPM_P2
2020/12/25 00:00:39;;;;;;;4.68;2.45;;;21.50;48.20;;;;;;4997687;28;20353;-46
2020/12/25 00:03:05;;;;;;;5.03;2.80;;;21.50;48.20;;;;;;4997404;28;20361;-51
2020/12/25 00:05:30;;;;;;;5.45;2.55;;;21.50;48.20;;;;;;4997619;28;20046;-50
2020/12/25 00:07:56;;;;;;;4.35;2.50;;;21.50;48.10;;;;;;4997875;28;20153;-51
2020/12/25 00:10:22;;;;;;;3.97;2.45;;;21.40;48.10;;;;;;4997462;28;20045;-52
2020/12/25 00:12:47;;;;;;;4.40;2.38;;;21.40;48.10;;;;;;4997580;28;20031;-54
2020/12/25 00:15:13;;;;;;;5.88;2.60;;;21.40;48.10;;;;;;4997505;28;20471;-54
2020/12/25 00:17:38;;;;;;;4.68;2.28;;;21.40;48.10;;;;;;4997407;28;20034;-52
2020/12/25 00:20:05;;;;;;;5.00;2.42;;;21.40;48.00;;;;;;4996578;28;20038;-54
2020/12/25 00:22:31;;;;;;;4.20;2.20;;;21.40;48.00;;;;;;4996960;28;20397;-53
2020/12/25 00:24:56;;;;;;;3.47;2.42;;;21.40;48.00;;;;;;4997283;28;20089;-49
2020/12/25 00:27:22;;;;;;;3.47;1.98;;;21.30;48.00;;;;;;4997412;28;20357;-49
2020/12/25 00:29:47;;;;;;;3.63;2.15;;;21.30;48.00;;;;;;4997145;28;20109;-46
2020/12/25 00:32:13;;;;;;;6.18;2.58;;;21.30;47.90;;;;;;4996625;28;20034;-47
2020/12/25 00:34:38;;;;;;;6.03;2.40;;;21.30;47.90;;;;;;4997120;28;20042;-48
2020/12/25 00:37:03;;;;;;;4.18;2.28;;;21.30;47.90;;;;;;4996724;28;20039;-45
2020/12/25 00:39:29;;;;;;;4.47;2.13;;;21.30;47.90;;;;;;4997107;28;20035;-48
2020/12/25 00:41:54;;;;;;;4.40;2.20;;;21.20;47.80;;;;;;4996923;28;20047;-46
2020/12/25 00:44:20;;;;;;;8.93;2.35;;;21.20;47.80;;;;;;4996768;28;20046;-47
2020/12/25 00:46:47;;;;;;;6.22;2.13;;;21.20;47.80;;;;;;4996729;28;20066;-52
2020/12/25 00:49:12;;;;;;;3.72;2.15;;;21.20;47.90;;;;;;4996788;28;20034;-49
2020/12/25 00:51:38;;;;;;;6.38;2.35;;;21.20;47.90;;;;;;4996554;28;20073;-47
2020/12/25 00:54:04;;;;;;;3.72;1.98;;;21.20;47.80;;;;;;4996750;28;20072;-49
2020/12/25 00:56:29;;;;;;;3.63;2.10;;;21.20;47.80;;;;;;4996941;28;20042;-48
2020/12/25 00:58:55;;;;;;;5.07;1.90;;;21.10;47.80;;;;;;4996843;28;20193;-49
2020/12/25 01:01:21;;;;;;;3.90;2.20;;;21.10;47.80;;;;;;4996507;28;20412;-46
2020/12/25 01:03:47;;;;;;;5.05;1.73;;;21.10;47.70;;;;;;4996199;28;20132;-50
2020/12/25 01:06:15;;;;;;;4.20;2.00;;;21.00;47.70;;;;;;4996638;28;20030;-47
2020/12/25 01:08:42;;;;;;;3.78;1.73;;;21.00;47.70;;;;;;4996579;28;20400;-47
2020/12/25 01:11:08;;;;;;;5.90;2.03;;;21.00;47.70;;;;;;4996714;28;20088;-48
2020/12/25 01:13:35;;;;;;;2.53;1.58;;;21.00;47.70;;;;;;4996359;28;20117;-47
2020/12/25 01:16:04;;;;;;;3.97;1.85;;;20.90;47.60;;;;;;4995884;28;20494;-48
2020/12/25 01:18:30;;;;;;;3.88;1.73;;;20.90;47.60;;;;;;4996237;28;20034;-52
2020/12/25 01:20:56;;;;;;;5.18;1.90;;;20.90;47.60;;;;;;4996234;28;20041;-48
2020/12/25 01:23:21;;;;;;;4.28;2.33;;;20.90;47.60;;;;;;4996180;28;20151;-46
2020/12/25 01:25:47;;;;;;;3.90;2.10;;;20.90;47.60;;;;;;4996344;28;20038;-48
2020/12/25 01:28:12;;;;;;;2.80;1.40;;;20.90;47.50;;;;;;4996275;28;20049;-50
2020/12/25 01:30:38;;;;;;;4.55;2.15;;;20.80;47.50;;;;;;4995803;28;20043;-48
2020/12/25 01:33:03;;;;;;;4.13;1.70;;;20.80;47.50;;;;;;4995762;28;20035;-48
2020/12/25 01:35:29;;;;;;;3.75;1.80;;;20.80;47.40;;;;;;4996355;28;20086;-48
2020/12/25 01:37:54;;;;;;;3.58;1.77;;;20.80;47.40;;;;;;4995971;28;20034;-49
2020/12/25 01:40:20;;;;;;;5.97;1.60;;;20.80;47.40;;;;;;4996109;28;20061;-48
2020/12/25 01:42:45;;;;;;;3.33;1.60;;;20.70;47.40;;;;;;4995986;28;20361;-47
2020/12/25 01:45:11;;;;;;;6.05;1.42;;;20.70;47.30;;;;;;4995767;28;20030;-49
2020/12/25 01:47:37;;;;;;;4.43;1.50;;;20.70;47.30;;;;;;4995474;28;20129;-50
2020/12/25 01:50:03;;;;;;;3.55;1.55;;;20.70;47.30;;;;;;4995809;28;20038;-46
2020/12/25 01:52:29;;;;;;;2.83;1.58;;;20.70;47.30;;;;;;4995699;28;20481;-50
2020/12/25 01:54:55;;;;;;;2.92;1.60;;;20.70;47.90;;;;;;4996029;28;20042;-50
2020/12/25 01:57:22;;;;;;;5.55;1.45;;;20.60;47.20;;;;;;4995804;28;20037;-50
2020/12/25 01:59:49;;;;;;;3.25;1.80;;;20.70;47.20;;;;;;4995498;28;20173;-49
2020/12/25 02:02:16;;;;;;;3.35;1.50;;;20.60;47.20;;;;;;4995703;28;20042;-48
2020/12/25 02:04:42;;;;;;;3.72;1.58;;;20.60;47.20;;;;;;4995670;28;20477;-49
2020/12/25 02:07:07;;;;;;;4.53;1.52;;;20.60;47.10;;;;;;4995538;28;20030;-47
2020/12/25 02:09:33;;;;;;;2.20;1.00;;;20.60;47.10;;;;;;4995617;28;20062;-47
2020/12/25 02:11:58;;;;;;;3.33;1.27;;;20.50;47.00;;;;;;4995491;28;20119;-47
2020/12/25 02:14:24;;;;;;;2.63;1.25;;;20.50;47.00;;;;;;4995112;28;20521;-48
2020/12/25 02:16:49;;;;;;;2.78;1.58;;;20.50;47.00;;;;;;4995494;28;20089;-46
2020/12/25 02:19:15;;;;;;;2.17;1.42;;;20.50;47.00;;;;;;4995180;28;20048;-49
2020/12/25 02:21:41;;;;;;;3.13;1.35;;;20.50;47.00;;;;;;4995438;28;20065;-49
2020/12/25 02:24:08;;;;;;;3.97;1.52;;;20.50;47.00;;;;;;4995455;28;20030;-48
2020/12/25 02:26:34;;;;;;;3.40;1.20;;;20.50;47.00;;;;;;4995518;28;20034;-47
2020/12/25 02:29:00;;;;;;;2.40;1.10;;;20.40;46.90;;;;;;4995345;28;20037;-47
2020/12/25 02:31:25;;;;;;;2.72;1.25;;;20.50;47.00;;;;;;4995319;28;20133;-50
2020/12/25 02:33:51;;;;;;;3.80;1.15;;;20.40;47.00;;;;;;4996022;28;20038;-48
2020/12/25 02:36:16;;;;;;;2.85;1.35;;;20.40;46.90;;;;;;4995289;28;20038;-50
2020/12/25 02:38:42;;;;;;;2.90;1.40;;;20.40;46.90;;;;;;4995715;28;20069;-49
2020/12/25 02:41:07;;;;;;;3.65;1.20;;;20.40;46.90;;;;;;4995505;28;20063;-49
2020/12/25 02:43:33;;;;;;;2.60;1.20;;;20.40;46.80;;;;;;4995862;28;20030;-49
2020/12/25 02:45:58;;;;;;;3.30;1.00;;;20.30;46.70;;;;;;4999053;28;20038;-47
2020/12/25 02:48:24;;;;;;;3.13;1.33;;;20.30;46.70;;;;;;4999479;28;20045;-49
2020/12/25 02:50:49;;;;;;;2.55;1.48;;;20.30;46.70;;;;;;4998802;28;20050;-51
2020/12/25 02:53:15;;;;;;;1.80;0.90;;;20.30;46.70;;;;;;4999383;28;20039;-50
2020/12/25 02:55:40;;;;;;;2.35;1.00;;;20.30;46.70;;;;;;4999029;28;20058;-50
2020/12/25 02:58:06;;;;;;;1.35;0.80;;;20.30;46.70;;;;;;4999082;28;20322;-51
2020/12/25 03:00:31;;;;;;;1.50;0.85;;;20.30;46.70;;;;;;4998561;28;20035;-47
2020/12/25 03:02:57;;;;;;;2.22;0.88;;;20.30;46.70;;;;;;4999230;28;20034;-46
2020/12/25 03:05:22;;;;;;;2.95;1.08;;;20.30;46.70;;;;;;4998976;28;20034;-50
2020/12/25 03:07:48;;;;;;;2.65;0.80;;;20.20;46.70;;;;;;4999112;28;20361;-47
2020/12/25 03:10:13;;;;;;;1.95;0.82;;;20.20;46.70;;;;;;4998586;28;20053;-45
2020/12/25 03:12:40;;;;;;;2.15;1.08;;;20.20;46.70;;;;;;4998700;28;20092;-46
2020/12/25 03:15:06;;;;;;;3.50;1.00;;;20.20;46.80;;;;;;4998275;28;20049;-47
2020/12/25 03:17:31;;;;;;;3.08;0.75;;;20.20;46.80;;;;;;4999005;28;20442;-48
2020/12/25 03:19:57;;;;;;;2.72;0.90;;;20.20;46.70;;;;;;4998527;28;20153;-47
2020/12/25 03:22:22;;;;;;;2.22;1.10;;;20.20;46.70;;;;;;4998722;28;20035;-46
2020/12/25 03:24:48;;;;;;;1.25;0.75;;;20.20;46.70;;;;;;4998537;28;20038;-47
2020/12/25 03:27:13;;;;;;;2.25;1.02;;;20.10;46.70;;;;;;4998635;28;20046;-46
2020/12/25 03:29:39;;;;;;;2.13;0.93;;;20.10;46.70;;;;;;4998389;28;20057;-47
2020/12/25 03:32:04;;;;;;;2.05;0.70;;;20.10;46.80;;;;;;4998530;28;20084;-47
2020/12/25 03:34:30;;;;;;;2.17;0.90;;;20.10;46.70;;;;;;4998427;28;20038;-47
2020/12/25 03:36:56;;;;;;;1.42;0.90;;;20.10;46.70;;;;;;4998495;28;20026;-47
2020/12/25 03:39:21;;;;;;;1.48;0.88;;;20.10;46.60;;;;;;4998133;28;20416;-50
2020/12/25 03:41:47;;;;;;;2.10;0.73;;;20.10;46.60;;;;;;4998353;28;20046;-48
2020/12/25 03:44:12;;;;;;;1.92;0.80;;;20.10;46.60;;;;;;4997588;28;20424;-50
2020/12/25 03:46:38;;;;;;;2.08;0.90;;;20.10;46.60;;;;;;4998021;28;20041;-47
2020/12/25 03:49:05;;;;;;;1.60;0.57;;;20.10;46.60;;;;;;4998057;28;20378;-45
2020/12/25 03:51:31;;;;;;;4.15;1.15;;;20.10;46.60;;;;;;4997643;28;20046;-47
2020/12/25 03:53:56;;;;;;;1.95;0.80;;;20.00;46.50;;;;;;4997932;28;20371;-48
2020/12/25 03:56:22;;;;;;;1.15;0.82;;;20.00;46.50;;;;;;4996993;28;20105;-46
2020/12/25 03:58:47;;;;;;;1.23;0.55;;;20.00;46.50;;;;;;4997370;28;20038;-46
2020/12/25 04:01:13;;;;;;;1.02;0.60;;;20.00;46.40;;;;;;4997850;28;20035;-51
2020/12/25 04:03:39;;;;;;;1.02;0.68;;;20.00;46.50;;;;;;4997752;28;20038;-45
2020/12/25 04:06:04;;;;;;;1.63;0.70;;;20.00;46.40;;;;;;4997670;28;20034;-47
2020/12/25 04:08:30;;;;;;;1.08;0.52;;;20.00;46.40;;;;;;4980177;28;20366;-46
2020/12/25 04:10:55;;;;;;;0.90;0.50;;;20.00;46.40;;;;;;4997519;28;20042;-47
2020/12/25 04:13:22;;;;;;;1.23;0.70;;;20.00;46.40;;;;;;4997452;28;20030;-46
2020/12/25 04:15:48;;;;;;;2.70;0.70;;;20.00;46.40;;;;;;4997768;28;20429;-47
2020/12/25 04:18:13;;;;;;;0.63;0.40;;;19.90;46.30;;;;;;4997550;28;20081;-45
2020/12/25 04:20:39;;;;;;;1.27;0.57;;;19.90;46.30;;;;;;4997623;28;20044;-46
2020/12/25 04:23:04;;;;;;;1.38;0.50;;;19.90;46.30;;;;;;4997455;28;20038;-45
2020/12/25 04:25:30;;;;;;;1.95;0.90;;;19.90;46.30;;;;;;4997526;28;20096;-46
2020/12/25 04:27:55;;;;;;;2.05;0.55;;;19.90;46.30;;;;;;4996816;28;20484;-47
2020/12/25 04:30:21;;;;;;;1.17;0.68;;;19.90;46.30;;;;;;4997111;28;20053;-50
2020/12/25 04:32:46;;;;;;;1.67;0.80;;;19.90;46.30;;;;;;4997219;28;20054;-47
2020/12/25 04:35:12;;;;;;;1.85;0.80;;;19.90;46.30;;;;;;4997145;28;20050;-47
2020/12/25 04:37:37;;;;;;;0.82;0.50;;;19.80;46.30;;;;;;4997377;28;20031;-47
2020/12/25 04:40:04;;;;;;;0.98;0.50;;;19.80;46.20;;;;;;4996827;28;20082;-47
2020/12/25 04:42:30;;;;;;;0.68;0.35;;;19.80;46.20;;;;;;4997078;28;20037;-48
2020/12/25 04:44:56;;;;;;;1.65;0.80;;;19.80;46.10;;;;;;4996904;28;20045;-50
2020/12/25 04:47:23;;;;;;;2.25;0.50;;;19.80;46.10;;;;;;4996983;28;20042;-48
2020/12/25 04:49:48;;;;;;;1.40;0.60;;;19.80;46.10;;;;;;4996773;28;20070;-50
2020/12/25 04:52:14;;;;;;;1.42;0.63;;;19.80;46.00;;;;;;4996941;28;20382;-47
2020/12/25 04:54:39;;;;;;;2.33;0.60;;;19.80;46.00;;;;;;4997073;28;20038;-50
2020/12/25 04:57:05;;;;;;;1.50;0.50;;;19.80;46.00;;;;;;4996642;28;20034;-47
2020/12/25 04:59:31;;;;;;;0.50;0.40;;;19.80;46.00;;;;;;4996647;28;20519;-47
2020/12/25 05:02:00;;;;;;;1.25;0.55;;;19.80;46.00;;;;;;4996822;28;20360;-49
2020/12/25 05:04:26;;;;;;;1.08;0.60;;;19.70;45.90;;;;;;4996581;28;20045;-48
2020/12/25 05:06:53;;;;;;;0.80;0.45;;;19.70;45.80;;;;;;4996251;28;20389;-49
2020/12/25 05:09:23;;;;;;;1.38;0.63;;;19.70;45.90;;;;;;4996526;28;20409;-47
2020/12/25 05:11:53;;;;;;;1.10;0.60;;;19.70;45.90;;;;;;4995862;28;20515;-48
2020/12/25 05:14:24;;;;;;;1.52;0.50;;;19.70;45.90;;;;;;4996183;28;20491;-48
2020/12/25 05:16:53;;;;;;;0.60;0.50;;;19.70;45.90;;;;;;4996353;28;20037;-48
2020/12/25 05:19:25;;;;;;;1.13;0.65;;;19.70;45.90;;;;;;4996566;28;20035;-47
2020/12/25 05:21:52;;;;;;;1.90;0.60;;;19.60;45.90;;;;;;4996385;28;20368;-49
2020/12/25 05:24:18;;;;;;;0.93;0.43;;;19.60;45.80;;;;;;4996048;28;20041;-46
2020/12/25 05:26:52;;;;;;;0.55;0.40;;;19.60;45.80;;;;;;4996168;28;20034;-47
2020/12/25 05:29:19;;;;;;;1.65;0.52;;;19.60;45.80;;;;;;4996744;28;20093;-47
2020/12/25 05:31:49;;;;;;;0.32;0.22;;;19.60;45.80;;;;;;4995996;28;20050;-47
2020/12/25 05:34:17;;;;;;;0.82;0.50;;;19.60;45.70;;;;;;4996025;28;20350;-47
2020/12/25 05:36:49;;;;;;;1.08;0.35;;;19.60;45.70;;;;;;4996210;28;20037;-47
2020/12/25 05:39:27;;;;;;;2.00;0.63;;;19.60;45.80;;;;;;4996000;28;20042;-50
2020/12/25 05:42:01;;;;;;;0.35;0.30;;;19.60;46.40;;;;;;4995731;28;20053;-52
2020/12/25 05:44:35;;;;;;;0.65;0.38;;;19.60;45.80;;;;;;4995874;28;20031;-49
2020/12/25 05:47:01;;;;;;;0.85;0.63;;;19.50;45.80;;;;;;4995749;28;20066;-47
2020/12/25 05:49:27;;;;;;;1.02;0.40;;;19.50;45.80;;;;;;4995386;28;20076;-47
2020/12/25 05:51:54;;;;;;;0.82;0.40;;;19.50;45.80;;;;;;4995812;28;20046;-48
2020/12/25 05:54:24;;;;;;;0.45;0.22;;;19.50;45.80;;;;;;4995786;28;20117;-49
2020/12/25 05:56:55;;;;;;;0.50;0.20;;;19.50;45.80;;;;;;4995700;28;20038;-47
2020/12/25 05:59:28;;;;;;;1.02;0.40;;;19.50;45.80;;;;;;4995741;28;20027;-47
2020/12/25 06:01:59;;;;;;;1.10;0.47;;;19.50;45.80;;;;;;4995772;28;20034;-50
2020/12/25 06:04:27;;;;;;;1.33;0.30;;;19.50;45.80;;;;;;4995708;28;20040;-49
2020/12/25 06:06:53;;;;;;;1.52;0.50;;;19.50;45.80;;;;;;4995669;28;20117;-47
2020/12/25 06:09:21;;;;;;;1.05;0.38;;;19.50;45.80;;;;;;4995572;28;20069;-48
2020/12/25 06:11:51;;;;;;;1.17;0.50;;;19.50;45.80;;;;;;4995657;28;20376;-47
2020/12/25 06:14:17;;;;;;;0.47;0.30;;;19.50;45.80;;;;;;4995585;28;20030;-49
2020/12/25 06:16:57;;;;;;;0.38;0.30;;;19.40;45.90;;;;;;4995505;28;20037;-48
2020/12/25 06:19:44;;;;;;;0.28;0.20;;;19.40;45.90;;;;;;5000301;28;20099;-47
2020/12/25 06:22:38;;;;;;;0.28;0.20;;;19.40;45.90;;;;;;4984504;28;20128;-47
2020/12/25 06:25:08;;;;;;;1.40;0.45;;;19.40;45.90;;;;;;4999368;28;20038;-48
2020/12/25 06:27:35;;;;;;;0.57;0.30;;;19.40;45.90;;;;;;5001914;28;20085;-46
2020/12/25 06:30:02;;;;;;;0.63;0.22;;;19.40;46.00;;;;;;5002097;28;20080;-47
2020/12/25 06:32:30;;;;;;;1.95;0.40;;;19.40;45.90;;;;;;5002056;28;20026;-48
2020/12/25 06:35:01;;;;;;;1.48;0.50;;;19.40;45.90;;;;;;5001594;28;20030;-47
2020/12/25 06:37:30;;;;;;;0.85;0.30;;;19.30;45.90;;;;;;5001231;28;20097;-49
2020/12/25 06:40:04;;;;;;;0.65;0.20;;;19.40;46.10;;;;;;5002121;28;20368;-47
2020/12/25 06:42:32;;;;;;;1.95;0.55;;;19.40;46.50;;;;;;5001825;28;20128;-48
2020/12/25 06:45:02;;;;;;;0.77;0.22;;;19.40;46.70;;;;;;5001937;28;20038;-46
2020/12/25 06:47:33;;;;;;;0.90;0.50;;;19.40;46.80;;;;;;5001937;28;20049;-49
2020/12/25 06:50:07;;;;;;;1.20;0.50;;;19.50;46.80;;;;;;5001557;28;20022;-47
2020/12/25 06:52:32;;;;;;;0.93;0.40;;;19.50;46.80;;;;;;5001692;28;20453;-50
2020/12/25 06:54:58;;;;;;;0.13;0.10;;;19.50;46.90;;;;;;5001981;28;20202;-46
2020/12/25 06:57:28;;;;;;;3.40;0.60;;;19.50;47.00;;;;;;5001653;28;20034;-47
2020/12/25 06:59:58;;;;;;;1.80;0.50;;;19.50;47.10;;;;;;5001770;28;20038;-47
2020/12/25 07:02:23;;;;;;;2.88;0.30;;;19.50;46.90;;;;;;5001564;28;20038;-48
2020/12/25 07:04:50;;;;;;;0.88;0.63;;;19.50;46.80;;;;;;5001360;28;20446;-47
2020/12/25 07:07:19;;;;;;;1.38;0.50;;;19.60;46.80;;;;;;5001326;28;20361;-47
2020/12/25 07:09:47;;;;;;;0.98;0.32;;;19.60;46.80;;;;;;5001467;28;20113;-46
2020/12/25 07:12:23;;;;;;;0.45;0.15;;;19.70;46.90;;;;;;5001566;28;20109;-47
2020/12/25 07:14:49;;;;;;;3.20;0.40;;;19.70;46.90;;;;;;5001481;28;20070;-49
2020/12/25 07:17:15;;;;;;;0.38;0.13;;;19.80;47.00;;;;;;5001465;28;20038;-49
2020/12/25 07:19:43;;;;;;;0.88;0.30;;;19.80;47.00;;;;;;5001754;28;20342;-46
2020/12/25 07:22:09;;;;;;;4.38;0.38;;;19.80;47.10;;;;;;5001357;28;20041;-49
2020/12/25 07:24:41;;;;;;;1.00;0.28;;;19.90;47.10;;;;;;5001378;28;20034;-50
2020/12/25 07:27:11;;;;;;;1.25;0.28;;;20.00;47.10;;;;;;5001549;28;20093;-48
2020/12/25 07:29:38;;;;;;;0.38;0.20;;;20.00;47.10;;;;;;5000260;28;20058;-46
2020/12/25 07:32:04;;;;;;;0.55;0.25;;;20.00;47.10;;;;;;4997846;28;20453;-46
2020/12/25 07:34:30;;;;;;;1.63;0.28;;;20.10;47.10;;;;;;4998254;28;20038;-47
2020/12/25 07:36:57;;;;;;;2.08;0.55;;;20.10;47.10;;;;;;4998033;28;20041;-46
2020/12/25 07:39:24;;;;;;;0.38;0.22;;;20.20;47.10;;;;;;4997771;28;20034;-48
2020/12/25 07:41:50;;;;;;;6.32;0.65;;;20.20;47.10;;;;;;4998251;28;20050;-46
2020/12/25 07:44:17;;;;;;;1.77;0.50;;;20.20;47.10;;;;;;4998162;28;20169;-47
2020/12/25 07:46:44;;;;;;;0.95;0.40;;;20.30;47.10;;;;;;4998089;28;20034;-46
2020/12/25 07:49:09;;;;;;;0.43;0.40;;;20.30;47.20;;;;;;4997958;28;20049;-46
2020/12/25 07:51:35;;;;;;;0.82;0.50;;;20.40;47.20;;;;;;4997348;28;20039;-46
2020/12/25 07:54:02;;;;;;;2.75;0.90;;;20.40;47.20;;;;;;4997629;28;20041;-44
2020/12/25 07:56:29;;;;;;;3.83;0.65;;;20.50;47.40;;;;;;4997374;28;20481;-47
2020/12/25 07:58:56;;;;;;;1.90;0.93;;;20.50;47.60;;;;;;4998161;28;20030;-45
2020/12/25 08:01:28;;;;;;;0.55;0.40;;;20.50;47.50;;;;;;4997559;28;20034;-47
2020/12/25 08:03:56;;;;;;;3.22;0.32;;;20.60;47.50;;;;;;4997442;28;20413;-50
2020/12/25 08:06:23;;;;;;;1.50;0.60;;;20.60;47.50;;;;;;4997540;28;20039;-48
2020/12/25 08:08:52;;;;;;;0.82;0.52;;;20.60;47.50;;;;;;4997637;28;20368;-46
2020/12/25 08:11:19;;;;;;;1.83;0.52;;;20.70;47.50;;;;;;4997490;28;20038;-49
2020/12/25 08:13:49;;;;;;;0.98;0.57;;;20.70;47.40;;;;;;4997569;28;20273;-47
2020/12/25 08:16:15;;;;;;;0.77;0.32;;;20.70;47.40;;;;;;4997443;28;20057;-49
2020/12/25 08:18:41;;;;;;;2.75;0.40;;;20.70;47.30;;;;;;4997836;28;20453;-47
2020/12/25 08:21:06;;;;;;;1.38;0.25;;;20.80;47.30;;;;;;4997311;28;20105;-49
2020/12/25 08:23:36;;;;;;;1.42;0.60;;;20.70;47.20;;;;;;4997323;28;20144;-57
2020/12/25 08:26:03;;;;;;;1.27;0.40;;;20.80;47.40;;;;;;4997295;28;20376;-48
2020/12/25 08:28:32;;;;;;;1.17;0.57;;;20.80;47.30;;;;;;4997044;28;20061;-52
2020/12/25 08:31:12;;;;;;;2.28;0.52;;;20.80;47.20;;;;;;4997297;28;20484;-47
2020/12/25 08:33:37;;;;;;;2.72;0.57;;;20.80;47.20;;;;;;4997121;28;20053;-48
2020/12/25 08:36:09;;;;;;;1.50;0.52;;;20.80;47.10;;;;;;4997158;28;20038;-50
2020/12/25 08:38:42;;;;;;;1.17;0.40;;;20.80;47.10;;;;;;4997202;28;20058;-50
2020/12/25 08:41:07;;;;;;;0.70;0.40;;;20.90;47.00;;;;;;4996139;28;20081;-46
2020/12/25 08:43:33;;;;;;;1.00;0.50;;;20.90;47.00;;;;;;4996931;28;20070;-49
2020/12/25 08:46:00;;;;;;;2.22;0.30;;;20.90;46.90;;;;;;4996751;28;20038;-49
2020/12/25 08:48:27;;;;;;;1.65;0.50;;;20.80;46.80;;;;;;4996871;28;20042;-47
2020/12/25 08:51:11;;;;;;;1.98;0.70;;;20.90;47.70;;;;;;4997077;28;20034;-46
2020/12/25 08:53:38;;;;;;;1.35;0.50;;;20.90;47.10;;;;;;4996243;28;20109;-49
2020/12/25 08:56:20;;;;;;;3.65;0.55;;;20.90;47.20;;;;;;4996824;28;20038;-49
2020/12/25 08:59:03;;;;;;;4.65;0.70;;;20.90;47.20;;;;;;4996378;28;20037;-48
2020/12/25 09:01:30;;;;;;;1.30;0.45;;;20.90;47.30;;;;;;4996667;28;20044;-48
2020/12/25 09:03:56;;;;;;;7.57;0.60;;;20.90;47.30;;;;;;4996415;28;20346;-50
2020/12/25 09:06:22;;;;;;;3.70;0.52;;;20.90;47.30;;;;;;4996618;28;20092;-47
2020/12/25 09:08:48;;;;;;;7.13;0.60;;;20.90;47.40;;;;;;4996304;28;20452;-47
2020/12/25 09:11:15;;;;;;;3.70;0.65;;;20.90;47.40;;;;;;4995706;28;20047;-49
2020/12/25 09:13:41;;;;;;;1.02;0.70;;;20.90;47.30;;;;;;4996110;28;20352;-48
2020/12/25 09:16:07;;;;;;;1.35;0.47;;;20.90;47.30;;;;;;4996539;28;20034;-47
2020/12/25 09:18:34;;;;;;;8.68;0.82;;;20.90;47.30;;;;;;4995999;28;20049;-49
2020/12/25 09:21:00;;;;;;;5.10;0.77;;;20.90;47.30;;;;;;4996044;28;20175;-48
2020/12/25 09:23:26;;;;;;;0.70;0.47;;;20.90;47.30;;;;;;4995687;28;20528;-50
2020/12/25 09:25:52;;;;;;;3.42;0.63;;;20.90;47.40;;;;;;4995884;28;20034;-47
2020/12/25 09:28:17;;;;;;;5.15;0.50;;;20.90;47.50;;;;;;4996374;28;20092;-47
2020/12/25 09:30:43;;;;;;;3.45;0.65;;;21.00;47.70;;;;;;4996299;28;20046;-50
2020/12/25 09:33:09;;;;;;;2.92;0.98;;;21.00;47.70;;;;;;4995800;28;20449;-51
2020/12/25 09:35:34;;;;;;;4.97;0.50;;;21.00;47.70;;;;;;4995735;28;20046;-48
2020/12/25 09:38:00;;;;;;;1.98;0.60;;;21.00;47.80;;;;;;4996095;28;20352;-49
2020/12/25 09:40:25;;;;;;;8.55;0.70;;;21.00;47.90;;;;;;4995698;28;20054;-50
2020/12/25 09:42:51;;;;;;;1.45;0.40;;;21.00;47.90;;;;;;4996076;28;20111;-49
2020/12/25 09:45:16;;;;;;;3.65;0.52;;;21.00;47.90;;;;;;4995565;28;20034;-46
2020/12/25 09:47:42;;;;;;;8.57;0.82;;;21.00;48.00;;;;;;4995855;28;20101;-47
2020/12/25 09:50:07;;;;;;;4.85;0.63;;;21.00;48.00;;;;;;4995637;28;20104;-54
2020/12/25 09:52:34;;;;;;;2.45;0.77;;;21.00;48.10;;;;;;4995383;28;20042;-49
2020/12/25 09:55:00;;;;;;;2.72;0.63;;;21.00;48.10;;;;;;4995292;28;20402;-48
2020/12/25 09:57:25;;;;;;;1.50;0.70;;;21.10;48.10;;;;;;4995402;28;20073;-48
2020/12/25 09:59:53;;;;;;;1.83;0.60;;;21.10;48.10;;;;;;4995791;28;20126;-52
2020/12/25 10:02:18;;;;;;;2.05;0.60;;;21.10;48.10;;;;;;4995382;28;20061;-50
2020/12/25 10:04:44;;;;;;;3.28;0.73;;;21.10;48.00;;;;;;4995410;28;20470;-47
2020/12/25 10:07:09;;;;;;;3.55;0.60;;;21.10;48.00;;;;;;4995297;28;20058;-46
2020/12/25 10:09:35;;;;;;;6.43;0.88;;;21.10;48.00;;;;;;4995342;28;20089;-50
2020/12/25 10:12:00;;;;;;;1.77;0.45;;;21.10;48.00;;;;;;4995267;28;20065;-50
2020/12/25 10:14:26;;;;;;;2.95;0.70;;;21.10;48.10;;;;;;4995656;28;20038;-47
2020/12/25 10:16:51;;;;;;;4.90;0.60;;;21.10;48.10;;;;;;4995537;28;20376;-47
2020/12/25 10:19:17;;;;;;;1.77;0.93;;;21.20;48.20;;;;;;4995492;28;20038;-46
2020/12/25 10:21:43;;;;;;;5.40;2.08;;;21.20;48.20;;;;;;4995762;28;20129;-47
2020/12/25 10:24:09;;;;;;;3.95;2.20;;;21.20;48.20;;;;;;4995498;28;20118;-47
2020/12/25 10:26:34;;;;;;;5.85;2.28;;;21.20;48.20;;;;;;4995101;28;20070;-46
2020/12/25 10:29:00;;;;;;;4.70;2.20;;;21.20;48.20;;;;;;4995414;28;20034;-47
2020/12/25 10:31:25;;;;;;;4.55;1.98;;;21.20;48.20;;;;;;4995015;28;20050;-45
2020/12/25 10:33:50;;;;;;;5.65;2.47;;;21.20;48.20;;;;;;4995477;28;20117;-47
2020/12/25 10:36:16;;;;;;;4.78;2.08;;;21.20;48.30;;;;;;4995030;28;20102;-46
2020/12/25 10:38:42;;;;;;;4.70;2.17;;;21.20;48.30;;;;;;4995480;28;20066;-48
2020/12/25 10:41:09;;;;;;;5.13;2.28;;;21.20;48.30;;;;;;4995449;28;20125;-45
2020/12/25 10:43:34;;;;;;;4.78;2.35;;;21.20;48.20;;;;;;4978292;28;20391;-47
2020/12/25 10:46:00;;;;;;;4.57;2.35;;;21.20;48.20;;;;;;4995342;28;20121;-47
2020/12/25 10:48:25;;;;;;;2.75;1.70;;;21.20;48.00;;;;;;4994761;28;20031;-46
2020/12/25 10:50:51;;;;;;;5.30;1.90;;;21.20;48.00;;;;;;4994828;28;20117;-45
2020/12/25 10:53:16;;;;;;;3.67;1.80;;;21.20;47.90;;;;;;4995118;28;20334;-47
2020/12/25 10:55:42;;;;;;;3.08;1.77;;;21.30;47.90;;;;;;4995160;28;20034;-48
2020/12/25 10:58:07;;;;;;;4.95;1.83;;;21.30;47.70;;;;;;4994391;28;20437;-46
2020/12/25 11:00:33;;;;;;;4.10;2.00;;;21.30;47.70;;;;;;4995079;28;20100;-48
2020/12/25 11:02:58;;;;;;;3.13;1.70;;;21.30;47.60;;;;;;4995232;28;20042;-47
2020/12/25 11:05:24;;;;;;;5.85;1.88;;;21.40;47.70;;;;;;4997417;28;20459;-53
2020/12/25 11:07:49;;;;;;;2.42;1.67;;;21.40;47.60;;;;;;4998425;28;20169;-46
2020/12/25 11:10:15;;;;;;;3.58;1.90;;;21.50;47.60;;;;;;4998424;28;20046;-48
2020/12/25 11:12:41;;;;;;;4.40;1.58;;;21.50;47.80;;;;;;4998654;28;20034;-47
2020/12/25 11:15:06;;;;;;;5.20;1.73;;;21.50;47.60;;;;;;4998353;28;20048;-47
2020/12/25 11:17:32;;;;;;;1.85;1.15;;;21.50;47.70;;;;;;4998767;28;20030;-49
2020/12/25 11:19:57;;;;;;;4.47;1.63;;;21.60;47.70;;;;;;4998639;28;20110;-47
2020/12/25 11:22:23;;;;;;;3.47;1.60;;;21.60;47.40;;;;;;4998264;28;20135;-46
2020/12/25 11:24:49;;;;;;;7.93;1.40;;;21.60;47.50;;;;;;4998239;28;20034;-46
2020/12/25 11:27:14;;;;;;;2.78;1.55;;;21.60;47.30;;;;;;4997867;28;20117;-46
2020/12/25 11:29:40;;;;;;;2.80;1.55;;;21.70;47.20;;;;;;4998605;28;20038;-48
2020/12/25 11:32:05;;;;;;;2.80;1.70;;;21.70;47.20;;;;;;4998215;28;20046;-47
2020/12/25 11:34:31;;;;;;;3.47;1.25;;;21.70;46.80;;;;;;4997800;28;20440;-46
2020/12/25 11:36:56;;;;;;;5.80;1.60;;;21.70;47.60;;;;;;4998221;28;20038;-48
2020/12/25 11:39:22;;;;;;;10.45;1.92;;;21.70;48.20;;;;;;4998413;28;20101;-46
2020/12/25 11:41:47;;;;;;;6.40;1.83;;;21.70;48.90;;;;;;4997752;28;20050;-52
2020/12/25 11:44:13;;;;;;;3.38;1.33;;;21.80;47.90;;;;;;4998415;28;20365;-50
2020/12/25 11:46:39;;;;;;;5.78;1.40;;;21.70;48.70;;;;;;4997808;28;20038;-50
2020/12/25 11:49:06;;;;;;;7.15;1.70;;;21.80;49.20;;;;;;4998171;28;20042;-47
2020/12/25 11:51:32;;;;;;;3.63;1.67;;;21.80;49.30;;;;;;4997973;28;20042;-53
2020/12/25 11:53:58;;;;;;;2.63;1.35;;;21.80;49.30;;;;;;4997503;28;20085;-48
2020/12/25 11:56:29;;;;;;;8.85;1.27;;;21.80;49.20;;;;;;4997874;28;20050;-50
2020/12/25 11:58:56;;;;;;;4.78;1.70;;;21.90;49.30;;;;;;4998056;28;20100;-54
2020/12/25 12:01:22;;;;;;;4.03;1.40;;;21.80;49.30;;;;;;4997712;28;20423;-46
2020/12/25 12:03:48;;;;;;;3.35;1.50;;;21.80;49.30;;;;;;4997920;28;20118;-49
2020/12/25 12:06:20;;;;;;;2.45;1.38;;;21.80;49.30;;;;;;4998358;28;20049;-48
2020/12/25 12:08:45;;;;;;;2.17;1.00;;;21.80;49.30;;;;;;4997680;28;20034;-45
2020/12/25 12:11:12;;;;;;;2.08;0.93;;;21.90;49.30;;;;;;4997478;28;20442;-46
2020/12/25 12:13:37;;;;;;;5.45;1.17;;;21.90;49.30;;;;;;4997905;28;20026;-47
2020/12/25 12:16:03;;;;;;;5.10;1.10;;;21.90;49.20;;;;;;4996979;28;20038;-47
2020/12/25 12:18:29;;;;;;;2.63;1.17;;;21.80;49.10;;;;;;4997504;28;20442;-54
2020/12/25 12:20:55;;;;;;;3.05;0.88;;;21.90;49.10;;;;;;4997374;28;20138;-49
2020/12/25 12:23:20;;;;;;;3.53;1.17;;;21.90;49.00;;;;;;4997824;28;20445;-47
2020/12/25 12:25:46;;;;;;;4.10;1.05;;;21.90;49.00;;;;;;4997200;28;20034;-46
2020/12/25 12:28:11;;;;;;;6.30;1.50;;;21.90;48.90;;;;;;4997363;28;20050;-47
2020/12/25 12:30:37;;;;;;;3.33;1.10;;;21.90;48.80;;;;;;4996794;28;20381;-49
2020/12/25 12:33:02;;;;;;;3.85;1.05;;;21.90;48.70;;;;;;4996663;28;20169;-53
2020/12/25 12:35:28;;;;;;;2.78;1.00;;;21.90;48.70;;;;;;4996884;28;20442;-48
2020/12/25 12:37:53;;;;;;;3.83;1.13;;;21.80;48.60;;;;;;4996851;28;20030;-50
2020/12/25 12:40:19;;;;;;;2.78;0.90;;;21.80;48.50;;;;;;4996933;28;20081;-49
2020/12/25 12:42:44;;;;;;;1.33;0.80;;;21.80;48.50;;;;;;4997036;28;20070;-47
2020/12/25 12:45:10;;;;;;;3.80;1.33;;;21.80;48.40;;;;;;4996701;28;20038;-51